createdAt,value
2023-02-08T09:34:28.734Z,38.78
2023-02-08T09:37:42.506Z,37.08
2023-02-08T09:40:59.919Z,34.58
2023-02-08T09:51:22.106Z,39.30
2023-02-08T09:54:42.862Z,34.17
2023-02-08T09:58:07.881Z,32.17
2023-02-08T10:01:19.632Z,35.80
2023-02-08T10:04:38.552Z,39.13
2023-02-08T10:08:09.509Z,39.65
2023-02-08T10:11:49.256Z,34.63
2023-02-08T10:15:13.399Z,32.95
2023-02-08T10:18:53.585Z,32.78
2023-02-08T10:22:21.447Z,38.28
2023-02-08T10:25:59.465Z,39.38
2023-02-08T10:30:00.588Z,37.33
2023-02-08T10:33:09.550Z,37.10
2023-02-08T10:36:17.041Z,40.60
2023-02-08T10:39:25.484Z,35.25
2023-02-08T10:42:30.940Z,38.50
2023-02-08T10:45:42.233Z,32.85
2023-02-08T10:49:00.009Z,36.10
2023-02-08T10:52:03.268Z,32.30
2023-02-08T10:55:14.845Z,35.38
2023-02-08T10:58:21.295Z,31.60
2023-02-08T11:01:24.307Z,36.22
2023-02-08T11:04:27.010Z,32.78
2023-02-08T11:07:30.168Z,35.17
2023-02-08T11:10:33.076Z,35.75
2023-02-08T11:13:39.140Z,34.05
2023-02-08T11:16:43.256Z,37.55
2023-02-08T11:19:46.964Z,35.28
2023-02-08T11:22:49.470Z,36.50
2023-02-08T11:25:53.257Z,36.85
2023-02-08T11:29:06.046Z,36.53
2023-02-08T11:32:18.255Z,29.50
2023-02-08T11:35:22.610Z,33.45
2023-02-08T11:38:27.629Z,32.80
2023-02-08T11:41:30.863Z,31.30
2023-02-08T11:44:36.898Z,35.95
2023-02-08T11:47:39.477Z,36.10
2023-02-08T11:50:42.880Z,30.85
2023-02-08T11:53:49.261Z,34.67
2023-02-08T11:57:02.813Z,35.55
2023-02-08T12:00:21.038Z,36.38
2023-02-08T12:03:27.362Z,32.20
2023-02-08T12:07:02.710Z,31.13
2023-02-08T12:10:32.254Z,27.98
2023-02-08T12:13:57.073Z,33.83
2023-02-08T12:17:25.713Z,32.08
2023-02-08T12:20:37.077Z,34.67
2023-02-08T12:23:51.421Z,34.40
2023-02-08T12:27:08.891Z,31.08
2023-02-08T12:30:21.370Z,33.90
2023-02-08T12:33:40.017Z,37.03
2023-02-08T12:37:16.366Z,34.88
2023-02-08T12:40:49.012Z,31.35
2023-02-08T12:44:02.274Z,33.40
2023-02-08T12:47:16.961Z,32.53
2023-02-08T12:50:27.426Z,31.45
2023-02-08T12:53:34.789Z,37.88
2023-02-08T12:56:42.441Z,34.47
2023-02-08T12:59:50.679Z,36.85
2023-02-08T13:03:02.900Z,35.40
2023-02-08T13:06:09.002Z,39.95
2023-02-08T13:09:18.940Z,40.05
2023-02-08T13:12:24.862Z,35.28
2023-02-08T13:15:33.775Z,37.63
2023-02-08T13:18:40.914Z,34.30
2023-02-08T13:21:45.545Z,34.33
2023-02-08T13:24:55.294Z,33.80
2023-02-08T13:28:05.832Z,33.40
2023-02-08T13:31:14.215Z,35.42
2023-02-08T13:34:23.485Z,43.20
2023-02-08T13:37:31.469Z,43.42
2023-02-08T13:40:36.264Z,36.60
2023-02-08T13:43:43.572Z,40.05
2023-02-08T13:46:48.579Z,36.33
2023-02-08T13:50:00.858Z,38.85
2023-02-08T13:53:05.342Z,39.20
2023-02-08T13:56:10.350Z,37.05
2023-02-08T13:59:30.133Z,36.85
2023-02-08T14:02:32.645Z,37.35
2023-02-08T14:05:47.293Z,35.65
2023-02-08T14:08:58.369Z,38.58
2023-02-08T14:12:06.250Z,38.33
2023-02-08T14:15:26.459Z,34.63
2023-02-08T14:18:29.833Z,35.97
2023-02-08T14:21:37.348Z,36.03
2023-02-08T14:24:43.913Z,38.00
2023-02-08T14:27:52.470Z,35.88
2023-02-08T14:30:58.829Z,42.53
2023-02-08T14:34:01.525Z,34.92
2023-02-08T14:37:07.574Z,41.20
2023-02-08T14:40:35.107Z,40.75
2023-02-08T14:43:39.119Z,34.17
2023-02-08T14:46:45.641Z,33.92
2023-02-08T14:49:48.966Z,36.40
2023-02-08T14:52:59.883Z,41.70
2023-02-08T14:56:08.507Z,41.00
2023-02-08T14:59:15.718Z,39.38
2023-02-08T15:02:22.861Z,38.92
2023-02-08T15:05:28.069Z,38.00
2023-02-08T15:08:30.722Z,40.92
2023-02-08T15:11:36.350Z,40.42
2023-02-08T15:14:41.834Z,39.10
2023-02-08T15:17:48.075Z,45.05
2023-02-08T15:21:01.712Z,39.22
2023-02-08T15:24:07.847Z,40.50
2023-02-08T15:27:21.959Z,38.38
2023-02-08T15:30:32.754Z,39.38
2023-02-08T15:33:38.129Z,37.05
2023-02-08T15:36:40.920Z,41.65
2023-02-08T15:39:43.756Z,42.88
2023-02-08T15:42:47.634Z,38.80
2023-02-08T15:45:57.691Z,43.35
2023-02-08T15:49:00.666Z,42.22
2023-02-08T15:52:04.207Z,45.20
2023-02-08T15:55:07.859Z,53.83
2023-02-08T15:58:19.426Z,65.55
